Archival Weather

Tokyo Intl

Tokyo, Japan (RJTT)

Report from: Saturday, March 18, 2023 7:00 PM JST
Current time: Monday, June 17, 2024 7:17 PM JST

Current weather – Weather history – Daily summaries
Weather forecast

Present weatherLight rain
Temperature8.0°C (46.4°F)
Wind chill4.5°C (40.0°F)
Dew point7.0°C (44.6°F)
Winds 13 kts (6.7 m/s, 15 mph) North (10°)
Visibility6.2 mi. (10 km)
Clouds Few clouds 700 ft. (213 m)
Scattered clouds 3,500 ft. (1,067 m)
Ceiling: Broken clouds 6,000 ft. (1,829 m)
Altimeter29.83 in.Hg (1010 mB)
Relative humidity93 %
Density altitude-586 ft. (-179 m)
Remarks No significant changes expected in the next two hours
Flight conditions Visual Meteorological Conditions
Raw dataRJTT 181000Z 01013KT 9999 -RA FEW007 SCT035 BKN060 08/07 Q1010 NOSIG
An error has occurred. This application may no longer respond until reloaded. Reload 🗙